Time;durP1;ratioP1;P1;durP2;ratioP2;P2;SDS_P1;SDS_P2;PMS_P1;PMS_P2;Temp;Humidity;BMP_temperature;BMP_pressure;BME280_temperature;BME280_humidity;BME280_pressure;Samples;Min_cycle;Max_cycle;Signal;HPM_P1;HPM_P2
2022/10/07 00:00:33;;;;;;;3.70;1.70;;;16.60;51.60;;;;;;4923193;29;20199;-36
2022/10/07 00:03:05;;;;;;;2.53;1.60;;;16.60;51.40;;;;;;4918463;29;20585;-39
2022/10/07 00:05:36;;;;;;;3.97;1.88;;;16.70;51.20;;;;;;4918270;29;20691;-41
2022/10/07 00:08:07;;;;;;;4.07;1.80;;;16.70;50.90;;;;;;4920585;29;20200;-37
2022/10/07 00:10:41;;;;;;;3.28;1.90;;;16.80;50.80;;;;;;4923379;29;20191;-37
2022/10/07 00:13:13;;;;;;;3.90;1.83;;;16.80;50.70;;;;;;4936230;29;20690;-37
2022/10/07 00:15:43;;;;;;;3.63;1.77;;;16.80;50.60;;;;;;4936014;29;20220;-42
2022/10/07 00:18:16;;;;;;;4.03;2.00;;;16.90;50.70;;;;;;4919246;29;20228;-48
2022/10/07 00:20:47;;;;;;;3.72;1.67;;;16.90;50.50;;;;;;4918756;29;20193;-41
2022/10/07 00:23:17;;;;;;;4.97;2.15;;;16.90;50.50;;;;;;4917351;29;20683;-35
2022/10/07 00:25:48;;;;;;;4.50;1.85;;;16.90;50.50;;;;;;4928483;29;20214;-35
2022/10/07 00:28:19;;;;;;;4.22;1.85;;;16.90;50.40;;;;;;4936127;29;20210;-38
2022/10/07 00:30:49;;;;;;;6.05;2.28;;;17.00;50.50;;;;;;4936068;29;20192;-35
2022/10/07 00:33:22;;;;;;;4.15;1.92;;;17.00;50.40;;;;;;4927718;29;20235;-39
2022/10/07 00:35:53;;;;;;;3.70;1.98;;;17.00;50.30;;;;;;4924040;29;20226;-38
2022/10/07 00:38:23;;;;;;;3.10;1.75;;;17.10;50.30;;;;;;4929389;29;20238;-42
2022/10/07 00:40:54;;;;;;;4.05;2.00;;;17.10;50.30;;;;;;4931433;29;20199;-41
2022/10/07 00:43:28;;;;;;;4.50;1.95;;;17.10;50.20;;;;;;4935455;29;20738;-39
2022/10/07 00:46:01;;;;;;;4.40;1.60;;;17.10;50.30;;;;;;4926421;29;20200;-39
2022/10/07 00:48:36;;;;;;;3.83;1.75;;;17.20;50.30;;;;;;4916988;29;20657;-36
2022/10/07 00:51:08;;;;;;;4.00;1.80;;;17.20;50.40;;;;;;4917224;29;20198;-37
2022/10/07 00:53:41;;;;;;;4.47;1.98;;;17.20;50.30;;;;;;4927940;29;20228;-36
2022/10/07 00:56:12;;;;;;;2.97;1.92;;;17.20;50.30;;;;;;4935207;29;20235;-35
2022/10/07 00:58:44;;;;;;;3.30;1.70;;;17.30;50.30;;;;;;4927054;29;20220;-39
2022/10/07 01:01:15;;;;;;;3.63;2.10;;;17.30;50.30;;;;;;4935206;29;20221;-36
2022/10/07 01:03:49;;;;;;;3.40;1.70;;;17.30;50.30;;;;;;4936087;29;20695;-35
2022/10/07 01:06:20;;;;;;;4.57;1.83;;;17.30;50.30;;;;;;4925864;29;20202;-39
2022/10/07 01:08:53;;;;;;;4.85;2.10;;;17.40;50.30;;;;;;4935883;29;20203;-38
2022/10/07 01:11:36;;;;;;;5.00;1.85;;;17.40;50.30;;;;;;4926579;29;20208;-38
2022/10/07 01:14:12;;;;;;;4.35;2.03;;;17.50;50.20;;;;;;4916085;29;20197;-37
2022/10/07 01:16:52;;;;;;;3.97;1.98;;;17.50;50.20;;;;;;4921103;29;20230;-37
2022/10/07 01:19:47;;;;;;;4.03;1.92;;;17.50;50.30;;;;;;4931597;29;20207;-35
2022/10/07 01:22:30;;;;;;;3.13;1.70;;;17.50;50.30;;;;;;4934399;29;20219;-35
2022/10/07 01:25:15;;;;;;;4.88;2.40;;;17.60;50.30;;;;;;4935065;29;20203;-43
2022/10/07 01:27:52;;;;;;;4.15;1.60;;;17.60;50.30;;;;;;4921427;29;20200;-37
2022/10/07 01:30:23;;;;;;;4.68;2.08;;;17.60;50.30;;;;;;4915864;29;20210;-35
2022/10/07 01:33:00;;;;;;;4.65;2.00;;;17.70;50.30;;;;;;4915629;29;20216;-39
2022/10/07 01:35:34;;;;;;;6.38;2.10;;;17.70;50.30;;;;;;4916212;29;20231;-35
2022/10/07 01:38:09;;;;;;;5.68;2.30;;;17.70;50.30;;;;;;4934954;29;20651;-37
2022/10/07 01:40:43;;;;;;;5.03;2.00;;;17.80;50.40;;;;;;4915994;29;20211;-39
2022/10/07 01:43:18;;;;;;;4.85;2.22;;;17.80;50.40;;;;;;4923019;29;20230;-37
2022/10/07 01:45:49;;;;;;;5.03;1.98;;;17.80;50.40;;;;;;4935230;29;20203;-36
2022/10/07 01:48:20;;;;;;;5.53;1.95;;;17.90;50.40;;;;;;4934843;29;20200;-35
2022/10/07 01:50:53;;;;;;;3.47;2.03;;;17.90;50.30;;;;;;4915799;29;20207;-35
2022/10/07 01:53:34;;;;;;;4.97;2.00;;;17.90;50.30;;;;;;4915762;29;20224;-37
2022/10/07 01:56:28;;;;;;;5.60;2.10;;;18.00;50.30;;;;;;4916027;29;20224;-35
2022/10/07 01:59:22;;;;;;;4.72;2.13;;;17.90;50.20;;;;;;4924539;29;20203;-39
2022/10/07 02:02:02;;;;;;;6.65;2.35;;;18.00;50.10;;;;;;4933855;29;20216;-46
2022/10/07 02:04:44;;;;;;;4.78;2.10;;;18.00;50.00;;;;;;4934738;29;20195;-35
2022/10/07 02:07:26;;;;;;;6.50;2.60;;;18.10;50.10;;;;;;4933299;29;20218;-35
2022/10/07 02:10:05;;;;;;;6.40;2.50;;;18.10;50.00;;;;;;4915599;29;20210;-36
2022/10/07 02:12:42;;;;;;;4.40;2.03;;;18.10;49.90;;;;;;4929696;29;20235;-36
2022/10/07 02:15:19;;;;;;;3.95;1.92;;;18.20;50.00;;;;;;4934603;29;20199;-41
2022/10/07 02:17:53;;;;;;;6.00;2.45;;;18.20;50.00;;;;;;4933831;29;20203;-35
2022/10/07 02:20:27;;;;;;;4.88;1.83;;;18.20;49.90;;;;;;4920560;29;20204;-36
2022/10/07 02:23:01;;;;;;;6.20;2.25;;;18.20;49.80;;;;;;4914822;29;20227;-35
2022/10/07 02:25:36;;;;;;;4.25;2.13;;;18.20;49.80;;;;;;4914882;29;20203;-35
2022/10/07 02:28:10;;;;;;;6.00;2.30;;;18.30;49.80;;;;;;4919792;29;20205;-35
2022/10/07 02:30:45;;;;;;;4.93;1.88;;;18.30;49.70;;;;;;4915199;29;20208;-35
2022/10/07 02:33:18;;;;;;;4.10;2.22;;;18.30;49.70;;;;;;4915253;29;20220;-36
2022/10/07 02:35:53;;;;;;;4.68;2.00;;;18.40;49.80;;;;;;4915457;29;20743;-35
2022/10/07 02:38:25;;;;;;;4.43;2.17;;;18.40;49.70;;;;;;4916491;29;20204;-44
2022/10/07 02:41:05;;;;;;;5.85;2.33;;;18.40;49.70;;;;;;4918805;29;20214;-36
2022/10/07 02:43:42;;;;;;;5.03;2.20;;;18.40;50.20;;;;;;4915015;29;20288;-39
2022/10/07 02:46:19;;;;;;;4.57;2.13;;;18.50;49.60;;;;;;4915849;29;20196;-36
2022/10/07 02:48:56;;;;;;;4.47;2.22;;;18.50;49.60;;;;;;4934129;29;20210;-36
2022/10/07 02:51:29;;;;;;;4.55;2.08;;;18.50;49.50;;;;;;4933378;29;20191;-36
2022/10/07 02:54:01;;;;;;;5.25;2.20;;;18.60;49.50;;;;;;4928262;29;20677;-35
2022/10/07 02:56:34;;;;;;;4.97;2.35;;;18.60;49.40;;;;;;4928769;29;20228;-36
2022/10/07 02:59:07;;;;;;;4.90;2.25;;;18.60;49.30;;;;;;4927293;29;20207;-39
2022/10/07 03:01:45;;;;;;;4.32;2.20;;;18.60;49.30;;;;;;4933293;29;20196;-36
2022/10/07 03:04:17;;;;;;;6.43;2.30;;;18.70;49.30;;;;;;4933905;29;20296;-35
2022/10/07 03:06:48;;;;;;;7.28;2.38;;;18.70;49.50;;;;;;4918531;29;20701;-36
2022/10/07 03:09:19;;;;;;;4.97;2.35;;;18.70;49.20;;;;;;4921237;29;20234;-36
2022/10/07 03:11:50;;;;;;;6.00;2.30;;;18.80;49.30;;;;;;4933727;29;20684;-35
2022/10/07 03:14:21;;;;;;;5.50;2.00;;;18.80;49.20;;;;;;4915109;29;20824;-38
2022/10/07 03:16:53;;;;;;;5.47;2.42;;;18.80;49.20;;;;;;4914856;29;20219;-37
2022/10/07 03:19:24;;;;;;;4.50;2.00;;;18.90;49.10;;;;;;4914290;29;20575;-35
2022/10/07 03:21:55;;;;;;;5.72;2.08;;;18.90;49.10;;;;;;4914136;29;20223;-37
2022/10/07 03:24:25;;;;;;;4.80;1.90;;;18.90;49.00;;;;;;4913856;29;20200;-36
2022/10/07 03:26:56;;;;;;;6.97;2.10;;;18.90;49.00;;;;;;4914772;29;20204;-36
2022/10/07 03:29:27;;;;;;;4.45;2.10;;;19.00;48.90;;;;;;4914561;29;20207;-36
2022/10/07 03:32:00;;;;;;;6.05;2.35;;;19.00;48.80;;;;;;4914109;29;20216;-35
2022/10/07 03:34:31;;;;;;;4.03;2.05;;;19.00;48.80;;;;;;4932453;29;20213;-36
2022/10/07 03:37:02;;;;;;;5.50;2.20;;;19.00;48.70;;;;;;4930970;29;20224;-35
2022/10/07 03:39:33;;;;;;;4.30;2.00;;;19.10;48.70;;;;;;4918612;29;20214;-36
2022/10/07 03:42:04;;;;;;;5.57;2.55;;;19.10;49.30;;;;;;4929466;29;20216;-35
2022/10/07 03:44:34;;;;;;;5.18;2.08;;;19.10;48.40;;;;;;4937392;29;20234;-36
2022/10/07 03:47:07;;;;;;;4.38;2.13;;;19.10;48.30;;;;;;4929936;29;20211;-36
2022/10/07 03:49:38;;;;;;;5.90;2.42;;;19.20;48.30;;;;;;4918274;29;20200;-38
2022/10/07 03:52:09;;;;;;;5.78;2.35;;;19.20;48.30;;;;;;4918288;29;20300;-35
2022/10/07 03:54:40;;;;;;;4.72;2.17;;;19.20;48.50;;;;;;4936283;29;20768;-36
2022/10/07 03:59:53;;;;;;;5.55;2.55;;;19.30;48.60;;;;;;4917334;29;20215;-36
2022/10/07 04:02:26;;;;;;;6.90;2.40;;;19.30;48.50;;;;;;4917096;29;20688;-37
2022/10/07 04:04:57;;;;;;;6.25;2.13;;;19.30;48.40;;;;;;4920985;29;20675;-37
2022/10/07 04:07:27;;;;;;;6.85;2.25;;;19.30;48.40;;;;;;4930689;29;20287;-35
2022/10/07 04:09:58;;;;;;;5.50;2.10;;;19.30;48.30;;;;;;4917954;29;20295;-38
2022/10/07 04:12:31;;;;;;;5.60;2.47;;;19.40;48.30;;;;;;4925429;29;20219;-36
2022/10/07 04:15:02;;;;;;;4.25;2.00;;;19.40;48.20;;;;;;4935247;29;20210;-36
2022/10/07 04:17:34;;;;;;;4.45;1.88;;;19.40;48.30;;;;;;4936517;29;20231;-36
2022/10/07 04:20:05;;;;;;;5.50;2.05;;;19.40;48.20;;;;;;4936236;29;20206;-39
2022/10/07 04:22:36;;;;;;;5.80;2.30;;;19.40;48.10;;;;;;4935695;29;20208;-40
2022/10/07 04:27:55;;;;;;;5.28;2.20;;;19.40;48.20;;;;;;4936967;29;20682;-42
2022/10/07 04:30:27;;;;;;;4.43;2.28;;;19.50;48.30;;;;;;4936056;29;20200;-43
2022/10/07 04:33:00;;;;;;;3.83;2.22;;;19.40;48.10;;;;;;4936215;29;20238;-39
2022/10/07 04:35:31;;;;;;;5.35;2.30;;;19.40;48.10;;;;;;4936554;29;20196;-36
2022/10/07 04:38:02;;;;;;;6.57;2.47;;;19.40;48.00;;;;;;4935572;29;20231;-38
2022/10/07 04:40:32;;;;;;;3.28;1.90;;;19.40;48.00;;;;;;4935850;29;20610;-36
2022/10/07 04:43:22;;;;;;;4.57;2.20;;;19.40;48.00;;;;;;4935406;29;20215;-38
2022/10/07 04:45:54;;;;;;;6.55;2.63;;;19.50;47.90;;;;;;4935772;29;20235;-36
2022/10/07 04:48:27;;;;;;;5.65;2.53;;;19.50;47.70;;;;;;4935473;29;21418;-42
2022/10/07 04:51:01;;;;;;;3.42;1.90;;;19.50;47.60;;;;;;4934968;29;20207;-37
2022/10/07 04:53:32;;;;;;;4.88;2.13;;;19.50;47.50;;;;;;4935949;29;20241;-37
2022/10/07 04:56:04;;;;;;;4.82;1.90;;;19.50;47.50;;;;;;4935683;29;20239;-35
2022/10/07 04:58:35;;;;;;;4.40;2.17;;;19.50;47.60;;;;;;4927193;29;20200;-36
2022/10/07 05:01:11;;;;;;;5.40;2.05;;;19.40;47.50;;;;;;4916633;29;20215;-36
2022/10/07 05:03:43;;;;;;;5.40;2.28;;;19.40;47.60;;;;;;4917530;29;20223;-37
2022/10/07 05:06:18;;;;;;;5.40;2.45;;;19.40;47.60;;;;;;4930780;29;20202;-36
2022/10/07 05:08:48;;;;;;;6.07;2.35;;;19.40;47.60;;;;;;4935236;29;20196;-35
2022/10/07 05:11:19;;;;;;;5.28;2.20;;;19.50;47.70;;;;;;4935707;29;20203;-39
2022/10/07 05:13:51;;;;;;;3.97;2.22;;;19.50;47.70;;;;;;4934389;29;20219;-36
2022/10/07 05:16:24;;;;;;;5.47;2.15;;;19.40;47.60;;;;;;4920148;29;20307;-36
2022/10/07 05:18:57;;;;;;;7.47;2.53;;;19.40;47.50;;;;;;4921907;29;20204;-36
2022/10/07 05:21:27;;;;;;;5.07;2.10;;;19.40;47.50;;;;;;4915237;29;20287;-40
2022/10/07 05:23:59;;;;;;;5.78;2.20;;;19.40;47.50;;;;;;4918838;29;20200;-40
2022/10/07 05:26:29;;;;;;;6.57;2.47;;;19.40;47.50;;;;;;4934252;29;20687;-36
2022/10/07 05:29:00;;;;;;;4.20;1.98;;;19.40;47.40;;;;;;4922510;29;20226;-37
2022/10/07 05:31:31;;;;;;;6.03;2.30;;;19.40;47.40;;;;;;4925732;29;20207;-40
2022/10/07 05:34:05;;;;;;;6.15;2.30;;;19.40;47.40;;;;;;4932041;29;20199;-37
2022/10/07 05:36:36;;;;;;;3.97;2.10;;;19.40;47.50;;;;;;4925155;29;20231;-37
2022/10/07 05:39:07;;;;;;;4.93;1.75;;;19.40;47.50;;;;;;4934507;29;20564;-36
2022/10/07 05:41:38;;;;;;;4.72;2.40;;;19.40;47.50;;;;;;4932943;29;20195;-36
2022/10/07 05:44:09;;;;;;;4.57;2.33;;;19.40;47.50;;;;;;4932491;29;20200;-36
2022/10/07 05:46:40;;;;;;;5.55;2.10;;;19.40;47.50;;;;;;4933322;29;20664;-36
2022/10/07 05:49:13;;;;;;;3.65;1.77;;;19.30;47.40;;;;;;4931464;29;20200;-37
2022/10/07 05:51:44;;;;;;;5.63;2.22;;;19.40;47.40;;;;;;4934352;29;20279;-35
2022/10/07 05:54:14;;;;;;;5.43;1.88;;;19.40;47.30;;;;;;4931532;29;20290;-36
2022/10/07 05:56:45;;;;;;;7.32;2.55;;;19.30;47.30;;;;;;4932642;29;20314;-36
2022/10/07 05:59:16;;;;;;;3.60;1.92;;;19.30;47.30;;;;;;4931340;29;20211;-37
2022/10/07 06:01:47;;;;;;;5.47;2.55;;;19.30;47.30;;;;;;4934424;29;20726;-36
2022/10/07 06:04:20;;;;;;;4.60;2.17;;;19.30;47.30;;;;;;4935054;29;20200;-36
2022/10/07 06:06:51;;;;;;;4.05;2.17;;;19.30;47.40;;;;;;4924727;29;20211;-37
2022/10/07 06:14:54;;;;;;;4.25;1.88;;;19.30;47.40;;;;;;4915375;29;20835;-36
2022/10/07 06:17:25;;;;;;;3.20;1.92;;;19.20;47.40;;;;;;4931213;29;20230;-37
2022/10/07 06:19:58;;;;;;;5.68;2.35;;;19.20;47.40;;;;;;4932252;29;20196;-38
2022/10/07 06:22:29;;;;;;;6.00;2.42;;;19.20;47.40;;;;;;4926803;29;20218;-36
2022/10/07 06:25:01;;;;;;;4.75;2.33;;;19.20;47.40;;;;;;4933303;29;20200;-36
2022/10/07 06:27:32;;;;;;;5.38;2.05;;;19.20;47.40;;;;;;4933384;29;20209;-36
2022/10/07 06:30:02;;;;;;;7.43;2.60;;;19.20;47.40;;;;;;4933104;29;20211;-36
2022/10/07 06:32:33;;;;;;;4.53;2.20;;;19.20;47.40;;;;;;4947563;28;20305;-35
2022/10/07 06:35:06;;;;;;;4.43;2.20;;;19.10;47.40;;;;;;4952861;28;20198;-35
2022/10/07 06:37:38;;;;;;;7.35;2.20;;;19.10;47.40;;;;;;4936678;28;20227;-36
2022/10/07 06:40:09;;;;;;;4.47;2.03;;;19.00;47.40;;;;;;4933129;29;20683;-36
2022/10/07 06:42:40;;;;;;;4.47;1.75;;;19.00;47.50;;;;;;4933006;29;20251;-36
2022/10/07 06:45:12;;;;;;;5.88;2.53;;;19.00;47.50;;;;;;4932625;29;20210;-36
2022/10/07 06:47:44;;;;;;;4.40;2.00;;;19.00;47.60;;;;;;4947685;29;20199;-37
2022/10/07 06:50:17;;;;;;;4.65;2.10;;;19.00;47.60;;;;;;4953007;28;20201;-40
2022/10/07 06:52:47;;;;;;;4.63;1.73;;;19.00;47.60;;;;;;4952115;28;20225;-36
2022/10/07 06:55:18;;;;;;;4.47;1.92;;;18.90;47.60;;;;;;4952091;28;20199;-36
2022/10/07 06:57:49;;;;;;;4.57;2.60;;;18.90;47.70;;;;;;4951930;28;20233;-37
2022/10/07 07:00:20;;;;;;;4.95;2.33;;;18.90;47.70;;;;;;4952319;28;20213;-36
2022/10/07 07:02:51;;;;;;;4.40;2.05;;;18.90;47.70;;;;;;4951380;28;20230;-35
2022/10/07 07:05:23;;;;;;;5.20;2.30;;;18.90;47.70;;;;;;4943966;28;20191;-38
2022/10/07 07:07:54;;;;;;;4.63;2.10;;;18.90;47.70;;;;;;4932468;29;20243;-36
2022/10/07 07:10:25;;;;;;;6.47;2.00;;;18.80;47.70;;;;;;4932120;29;20211;-35
2022/10/07 07:12:56;;;;;;;2.88;1.70;;;18.80;47.80;;;;;;4932818;29;20224;-36
2022/10/07 07:15:27;;;;;;;5.40;1.98;;;18.70;47.80;;;;;;4932925;29;20294;-35
2022/10/07 07:17:58;;;;;;;6.00;2.40;;;18.70;47.80;;;;;;4947800;29;20226;-36
2022/10/07 07:20:34;;;;;;;6.32;2.10;;;18.70;47.80;;;;;;4951780;28;20202;-36
2022/10/07 07:23:05;;;;;;;4.38;1.88;;;18.70;47.90;;;;;;4951639;28;20221;-35
2022/10/07 07:25:38;;;;;;;5.45;2.00;;;18.70;47.90;;;;;;4951466;28;20198;-36
2022/10/07 07:28:10;;;;;;;4.80;2.30;;;18.60;47.90;;;;;;4951939;28;20205;-36
2022/10/07 07:30:42;;;;;;;3.45;2.05;;;18.60;47.90;;;;;;4951925;28;20660;-36
2022/10/07 07:33:12;;;;;;;4.70;2.22;;;18.60;47.90;;;;;;4951028;28;20395;-36
2022/10/07 07:35:45;;;;;;;5.72;2.50;;;18.60;47.90;;;;;;4951070;28;20205;-36
2022/10/07 07:38:16;;;;;;;3.53;2.22;;;18.60;48.00;;;;;;4932085;29;20319;-35
2022/10/07 07:40:47;;;;;;;4.93;2.53;;;18.50;47.90;;;;;;4932053;29;20203;-35
2022/10/07 07:43:17;;;;;;;5.95;2.40;;;18.50;48.00;;;;;;4932688;29;20219;-36
2022/10/07 07:45:48;;;;;;;5.15;1.92;;;18.50;48.00;;;;;;4932493;29;20574;-36
2022/10/07 07:48:20;;;;;;;4.28;2.05;;;18.40;48.00;;;;;;4949392;29;20206;-36
2022/10/07 07:50:53;;;;;;;6.03;2.72;;;18.40;48.00;;;;;;4951609;28;20257;-35
2022/10/07 07:53:23;;;;;;;5.38;2.40;;;18.40;48.10;;;;;;4951832;28;20219;-36
2022/10/07 07:55:58;;;;;;;5.30;2.47;;;18.40;48.10;;;;;;4951363;28;20198;-35
2022/10/07 07:58:29;;;;;;;5.25;2.50;;;18.30;48.70;;;;;;4951052;28;20233;-35
2022/10/07 08:01:04;;;;;;;4.18;2.15;;;18.30;48.10;;;;;;4951029;28;20203;-35
2022/10/07 08:03:36;;;;;;;5.28;2.25;;;18.30;48.10;;;;;;4950416;28;20277;-35
2022/10/07 08:06:09;;;;;;;5.38;2.22;;;18.30;48.10;;;;;;4938100;28;20199;-36
2022/10/07 08:08:41;;;;;;;4.30;2.20;;;18.30;48.10;;;;;;4932095;29;20191;-35
2022/10/07 08:11:13;;;;;;;6.00;2.63;;;18.20;48.10;;;;;;4932110;29;20282;-36
2022/10/07 08:13:44;;;;;;;6.05;2.38;;;18.20;48.20;;;;;;4932528;29;20683;-36
2022/10/07 08:16:16;;;;;;;5.07;2.40;;;18.20;48.80;;;;;;4932275;29;20207;-36
2022/10/07 08:18:48;;;;;;;4.43;2.28;;;18.10;48.20;;;;;;4916911;29;20228;-35
2022/10/07 08:21:22;;;;;;;5.85;2.67;;;18.10;48.20;;;;;;4914080;29;20226;-35
2022/10/07 08:23:57;;;;;;;3.70;2.00;;;18.10;48.30;;;;;;4935082;29;20704;-36
2022/10/07 08:26:28;;;;;;;6.53;2.40;;;18.10;48.30;;;;;;4936117;29;20226;-35
2022/10/07 08:28:59;;;;;;;4.07;2.30;;;18.00;48.20;;;;;;4935955;29;20208;-36
2022/10/07 08:31:30;;;;;;;6.35;2.22;;;18.00;48.30;;;;;;4935348;28;20200;-36
2022/10/07 08:34:02;;;;;;;4.38;2.17;;;18.00;48.30;;;;;;4954104;28;20212;-39
2022/10/07 08:36:36;;;;;;;4.22;2.28;;;18.00;48.30;;;;;;4946990;28;20212;-40
2022/10/07 08:39:08;;;;;;;4.93;2.20;;;17.90;48.30;;;;;;4935368;29;20273;-37
2022/10/07 08:41:56;;;;;;;4.40;2.05;;;17.90;48.30;;;;;;4935148;29;20196;-35
2022/10/07 08:44:30;;;;;;;4.20;2.22;;;17.80;48.40;;;;;;4934889;29;20226;-35
2022/10/07 08:47:15;;;;;;;5.30;2.13;;;17.80;48.40;;;;;;4931380;29;20263;-36
2022/10/07 08:49:59;;;;;;;4.07;2.00;;;17.80;48.50;;;;;;4936383;29;20202;-39
2022/10/07 08:52:44;;;;;;;4.70;2.50;;;17.80;48.60;;;;;;4935987;29;20282;-36
2022/10/07 08:55:21;;;;;;;4.38;2.22;;;17.80;48.60;;;;;;4918453;29;20208;-36
2022/10/07 08:58:09;;;;;;;4.63;2.30;;;17.70;48.60;;;;;;4917203;29;20219;-37
2022/10/07 09:00:47;;;;;;;4.18;2.38;;;17.70;48.60;;;;;;4923108;29;20200;-36
2022/10/07 09:03:30;;;;;;;4.18;2.00;;;17.70;48.60;;;;;;4935598;29;20581;-35
2022/10/07 09:06:02;;;;;;;3.95;1.88;;;17.70;48.70;;;;;;4928873;29;20566;-36
2022/10/07 09:08:40;;;;;;;5.20;2.33;;;17.60;48.70;;;;;;4921176;29;20196;-41
2022/10/07 09:11:18;;;;;;;4.55;2.30;;;17.60;48.80;;;;;;4916481;29;20238;-36
2022/10/07 09:13:52;;;;;;;5.45;2.20;;;17.50;48.70;;;;;;4916583;29;20219;-37
2022/10/07 09:16:26;;;;;;;4.72;2.42;;;17.50;48.80;;;;;;4930700;29;20208;-37
2022/10/07 09:19:00;;;;;;;6.40;2.50;;;17.50;48.80;;;;;;4936097;29;20234;-40
2022/10/07 09:21:38;;;;;;;4.65;2.20;;;17.40;48.90;;;;;;4935142;29;20203;-36
2022/10/07 09:24:21;;;;;;;4.50;2.17;;;17.40;48.90;;;;;;4935206;29;20196;-39
2022/10/07 09:26:55;;;;;;;3.15;2.08;;;17.40;48.90;;;;;;4934900;29;20266;-49
2022/10/07 09:29:28;;;;;;;5.10;2.22;;;17.30;48.90;;;;;;4935778;29;20267;-43
2022/10/07 09:31:59;;;;;;;4.15;2.10;;;17.30;48.90;;;;;;4935260;29;20247;-41
2022/10/07 09:34:31;;;;;;;3.70;2.15;;;17.30;48.90;;;;;;4935027;29;20200;-42
2022/10/07 09:37:13;;;;;;;4.45;2.20;;;17.30;48.90;;;;;;4934586;29;20203;-47
2022/10/07 09:39:46;;;;;;;3.72;2.30;;;17.30;48.90;;;;;;4916246;29;20211;-37
2022/10/07 09:42:30;;;;;;;6.05;2.50;;;17.20;48.90;;;;;;4921163;29;20224;-42
2022/10/07 09:45:04;;;;;;;3.97;2.00;;;17.20;49.00;;;;;;4933897;29;20207;-36
2022/10/07 09:47:39;;;;;;;3.63;2.00;;;17.10;48.90;;;;;;4935492;29;20196;-46
2022/10/07 09:50:33;;;;;;;4.35;2.13;;;17.10;49.00;;;;;;4934888;29;20214;-39
2022/10/07 09:53:04;;;;;;;4.78;2.08;;;17.10;49.10;;;;;;4935090;29;20226;-46
2022/10/07 09:55:42;;;;;;;5.53;2.10;;;17.00;49.00;;;;;;4934725;29;20233;-42
2022/10/07 09:58:21;;;;;;;4.53;1.90;;;17.00;49.10;;;;;;4934379;29;20575;-38
2022/10/07 10:00:54;;;;;;;4.55;2.40;;;17.00;49.10;;;;;;4935313;29;20208;-36
2022/10/07 10:03:31;;;;;;;4.07;2.22;;;16.90;49.10;;;;;;4934366;29;20580;-42
2022/10/07 10:06:03;;;;;;;5.40;2.08;;;16.90;49.10;;;;;;4929440;29;20200;-38
2022/10/07 10:08:35;;;;;;;3.80;2.03;;;16.90;49.10;;;;;;4922955;29;20192;-46
2022/10/07 10:11:24;;;;;;;4.05;1.70;;;16.90;49.10;;;;;;4915879;29;20197;-44
2022/10/07 10:13:55;;;;;;;3.75;1.92;;;16.90;49.20;;;;;;4915795;29;20200;-40
2022/10/07 10:16:36;;;;;;;3.88;2.13;;;16.80;49.20;;;;;;4915550;29;20251;-44
2022/10/07 10:19:22;;;;;;;4.40;1.98;;;16.80;49.20;;;;;;4930634;29;21360;-35
2022/10/07 10:21:55;;;;;;;4.85;2.08;;;16.80;49.30;;;;;;4933370;29;20250;-40
2022/10/07 10:27:21;;;;;;;5.10;1.95;;;16.70;49.30;;;;;;4933228;29;20191;-40
2022/10/07 10:29:59;;;;;;;4.68;2.13;;;16.70;49.30;;;;;;4933437;29;20207;-48
2022/10/07 10:32:46;;;;;;;3.55;2.25;;;16.70;49.30;;;;;;4946988;28;20218;-38
2022/10/07 10:35:22;;;;;;;4.47;2.25;;;16.70;49.40;;;;;;4952686;28;20203;-38
2022/10/07 10:38:05;;;;;;;4.10;2.33;;;16.60;49.40;;;;;;4934921;28;20202;-41
2022/10/07 10:40:41;;;;;;;4.15;2.13;;;16.60;49.40;;;;;;4933099;29;20196;-36
2022/10/07 10:43:26;;;;;;;5.15;2.28;;;16.60;49.40;;;;;;4932876;29;20298;-37
2022/10/07 10:46:30;;;;;;;3.50;1.73;;;16.60;49.40;;;;;;4933875;29;20206;-42
2022/10/07 10:49:11;;;;;;;4.25;2.20;;;16.50;49.40;;;;;;4952066;28;20198;-36
2022/10/07 10:51:53;;;;;;;5.18;2.35;;;16.50;49.40;;;;;;4952191;28;20344;-38
2022/10/07 10:54:30;;;;;;;4.10;2.08;;;16.50;49.40;;;;;;4952260;28;20707;-38
2022/10/07 10:57:05;;;;;;;4.35;2.10;;;16.50;49.50;;;;;;4952184;28;20198;-39
2022/10/07 11:00:03;;;;;;;5.03;2.00;;;16.40;49.40;;;;;;4943446;28;20695;-42
2022/10/07 11:03:05;;;;;;;4.63;2.50;;;16.40;49.50;;;;;;4945908;28;20298;-42
2022/10/07 11:05:38;;;;;;;4.57;1.75;;;16.40;49.50;;;;;;4943208;28;20191;-37
2022/10/07 11:08:13;;;;;;;5.72;2.33;;;16.30;49.50;;;;;;4913547;29;20211;-41
2022/10/07 11:10:47;;;;;;;5.50;2.53;;;16.30;49.50;;;;;;4913369;29;20236;-39
2022/10/07 11:13:29;;;;;;;6.68;2.05;;;16.30;49.50;;;;;;4913436;29;20216;-41
2022/10/07 11:16:06;;;;;;;3.95;2.05;;;16.30;49.60;;;;;;4913838;29;20204;-36
2022/10/07 11:18:42;;;;;;;9.77;2.42;;;16.30;49.60;;;;;;4951543;28;20230;-38
2022/10/07 11:21:17;;;;;;;5.00;2.30;;;16.30;50.50;;;;;;4951595;28;20253;-37
2022/10/07 11:23:55;;;;;;;3.83;2.05;;;16.30;51.00;;;;;;4951929;28;20242;-39
2022/10/07 11:26:30;;;;;;;5.97;2.40;;;16.40;51.20;;;;;;4951953;28;20202;-36
2022/10/07 11:29:07;;;;;;;6.32;2.28;;;16.40;51.10;;;;;;4951838;28;20206;-36
2022/10/07 11:31:43;;;;;;;6.95;2.28;;;16.40;51.20;;;;;;4950979;28;20679;-39
2022/10/07 11:34:18;;;;;;;5.43;2.50;;;16.40;51.20;;;;;;4944351;28;20617;-37
2022/10/07 11:37:01;;;;;;;5.05;2.40;;;16.40;51.20;;;;;;4922325;29;20202;-37
2022/10/07 11:39:33;;;;;;;8.68;2.33;;;16.30;51.30;;;;;;4931912;29;20227;-41
2022/10/07 11:42:09;;;;;;;8.30;3.05;;;16.30;51.20;;;;;;4931287;29;20226;-36
2022/10/07 11:44:44;;;;;;;7.07;2.55;;;16.40;51.40;;;;;;4931148;29;20258;-36
2022/10/07 11:47:21;;;;;;;7.30;2.47;;;16.30;51.50;;;;;;4937369;29;20563;-36
2022/10/07 11:50:01;;;;;;;6.70;2.42;;;16.30;51.40;;;;;;4913191;29;20230;-36
2022/10/07 11:52:34;;;;;;;6.25;2.30;;;16.30;51.50;;;;;;4913701;29;20628;-37
2022/10/07 11:55:09;;;;;;;6.75;2.55;;;16.30;51.40;;;;;;4913399;29;20196;-36
2022/10/07 11:57:42;;;;;;;5.60;2.88;;;16.30;51.50;;;;;;4915979;29;20574;-36
2022/10/07 12:00:26;;;;;;;5.35;2.45;;;16.20;52.10;;;;;;4916396;29;20238;-36
2022/10/07 12:03:12;;;;;;;5.85;2.50;;;16.20;51.50;;;;;;4920776;28;20641;-36
2022/10/07 12:06:11;;;;;;;6.60;2.75;;;16.20;51.50;;;;;;4918498;29;20602;-39
2022/10/07 12:08:43;;;;;;;5.30;2.83;;;16.20;51.50;;;;;;4935125;29;20200;-36
2022/10/07 12:11:48;;;;;;;7.30;3.17;;;16.10;52.00;;;;;;4935308;29;20203;-41
2022/10/07 12:14:42;;;;;;;5.43;2.88;;;16.00;51.70;;;;;;4916928;29;20210;-36
2022/10/07 12:17:30;;;;;;;8.27;3.33;;;16.00;52.00;;;;;;4929672;29;20199;-38
2022/10/07 12:20:32;;;;;;;5.95;2.70;;;16.00;52.00;;;;;;4922902;28;20766;-41
2022/10/07 12:23:49;;;;;;;8.00;3.05;;;16.00;51.90;;;;;;4913492;29;20230;-36
2022/10/07 12:26:52;;;;;;;7.57;3.22;;;16.00;51.90;;;;;;4916884;29;20649;-39
2022/10/07 12:30:01;;;;;;;5.97;2.97;;;16.00;51.80;;;;;;4916346;29;20202;-38
2022/10/07 12:32:59;;;;;;;5.70;2.65;;;15.90;51.70;;;;;;4932979;28;20298;-36
2022/10/07 12:35:51;;;;;;;6.70;2.85;;;15.90;51.70;;;;;;4931913;28;20198;-39
2022/10/07 12:38:24;;;;;;;6.30;2.85;;;15.90;51.70;;;;;;4914999;29;20204;-36
2022/10/07 12:41:05;;;;;;;5.80;2.97;;;15.90;51.70;;;;;;4916311;29;20299;-36
2022/10/07 12:43:49;;;;;;;5.72;2.90;;;15.80;51.60;;;;;;4915742;29;20694;-39
2022/10/07 12:46:23;;;;;;;5.75;2.88;;;15.80;51.60;;;;;;4915907;29;20289;-36
2022/10/07 12:49:00;;;;;;;7.03;2.60;;;15.80;51.60;;;;;;4953095;29;20199;-37
2022/10/07 12:51:36;;;;;;;4.30;2.47;;;15.80;51.60;;;;;;4954913;28;20195;-36
2022/10/07 12:54:12;;;;;;;5.72;2.58;;;15.70;51.50;;;;;;4954276;28;20250;-37
2022/10/07 12:56:45;;;;;;;6.45;2.53;;;15.70;51.50;;;;;;4954438;28;20697;-40
2022/10/07 12:59:49;;;;;;;5.95;2.58;;;15.70;51.50;;;;;;4954304;28;20231;-39
2022/10/07 13:02:51;;;;;;;4.38;2.60;;;15.70;51.50;;;;;;4946417;28;20242;-41
2022/10/07 13:06:08;;;;;;;5.10;2.60;;;15.70;51.40;;;;;;4941473;28;20191;-43
2022/10/07 13:09:25;;;;;;;5.45;2.70;;;15.60;51.30;;;;;;4927181;29;20208;-36
2022/10/07 13:12:28;;;;;;;4.95;2.70;;;15.60;51.30;;;;;;4914301;29;20221;-39
2022/10/07 13:15:15;;;;;;;4.55;2.58;;;15.60;51.30;;;;;;4933059;29;20191;-36
2022/10/07 13:17:51;;;;;;;6.20;3.10;;;15.60;51.30;;;;;;4942403;29;20195;-36
2022/10/07 13:20:42;;;;;;;7.10;2.97;;;15.60;51.40;;;;;;4953702;28;20222;-42
2022/10/07 13:23:18;;;;;;;5.55;2.60;;;15.50;51.30;;;;;;4953507;28;20226;-41
2022/10/07 13:25:53;;;;;;;4.32;2.60;;;15.50;51.40;;;;;;4947146;28;20558;-36
2022/10/07 13:28:26;;;;;;;5.28;2.45;;;15.50;51.30;;;;;;4934871;29;20199;-36
2022/10/07 13:31:16;;;;;;;6.30;2.92;;;15.40;51.30;;;;;;4934731;29;20235;-36
2022/10/07 13:33:47;;;;;;;6.10;2.75;;;15.40;51.20;;;;;;4949365;29;20584;-36
2022/10/07 13:36:20;;;;;;;6.40;2.72;;;15.40;51.30;;;;;;4948942;28;20203;-45
2022/10/07 13:38:52;;;;;;;4.43;2.42;;;15.40;51.30;;;;;;4934196;29;20226;-37
2022/10/07 13:41:33;;;;;;;7.45;2.85;;;15.40;51.20;;;;;;4933487;29;20272;-35
2022/10/07 13:44:06;;;;;;;5.43;2.70;;;15.40;51.20;;;;;;4931648;29;20199;-36
2022/10/07 13:46:39;;;;;;;6.65;2.80;;;15.40;51.20;;;;;;4934386;29;20199;-36